sensor_id;sensor_type;location;lat;lon;timestamp;P1;durP1;ratioP1;P2;durP2;ratioP2
52764;SDS011;38650;44.536;18.664;2023-02-28T07:22:17;7.50;;;6.07;;
52764;SDS011;38650;44.536;18.664;2023-02-28T07:24:43;8.57;;;6.75;;
52764;SDS011;38650;44.536;18.664;2023-02-28T07:27:08;7.97;;;6.28;;
52764;SDS011;38650;44.536;18.664;2023-02-28T07:29:34;6.57;;;5.88;;
52764;SDS011;38650;44.536;18.664;2023-02-28T07:32:00;5.90;;;5.30;;
52764;SDS011;38650;44.536;18.664;2023-02-28T07:34:25;5.32;;;4.82;;
52764;SDS011;38650;44.536;18.664;2023-02-28T07:36:54;6.90;;;5.93;;
52764;SDS011;38650;44.536;18.664;2023-02-28T07:39:21;7.22;;;5.50;;
52764;SDS011;38650;44.536;18.664;2023-02-28T07:41:47;5.70;;;4.75;;
52764;SDS011;38650;44.536;18.664;2023-02-28T07:44:13;5.65;;;5.15;;
52764;SDS011;38650;44.536;18.664;2023-02-28T07:46:38;5.47;;;4.97;;
52764;SDS011;38650;44.536;18.664;2023-02-28T07:49:05;4.55;;;4.15;;
52764;SDS011;38650;44.536;18.664;2023-02-28T07:51:31;6.90;;;5.82;;
52764;SDS011;38650;44.536;18.664;2023-02-28T07:53:59;6.32;;;5.72;;
52764;SDS011;38650;44.536;18.664;2023-02-28T07:56:34;4.72;;;4.22;;
52764;SDS011;38650;44.536;18.664;2023-02-28T07:58:59;5.18;;;4.78;;
52764;SDS011;38650;44.536;18.664;2023-02-28T08:01:31;4.95;;;4.45;;
52764;SDS011;38650;44.536;18.664;2023-02-28T08:04:18;8.23;;;6.60;;
52764;SDS011;38650;44.536;18.664;2023-02-28T08:06:44;6.82;;;6.13;;
52764;SDS011;38650;44.536;18.664;2023-02-28T08:09:21;9.27;;;8.32;;
52764;SDS011;38650;44.536;18.664;2023-02-28T08:11:48;9.23;;;8.27;;
52764;SDS011;38650;44.536;18.664;2023-02-28T08:14:14;7.50;;;6.68;;
52764;SDS011;38650;44.536;18.664;2023-02-28T08:16:40;6.40;;;5.70;;
52764;SDS011;38650;44.536;18.664;2023-02-28T08:19:08;5.50;;;5.00;;
52764;SDS011;38650;44.536;18.664;2023-02-28T08:21:34;5.93;;;5.32;;
52764;SDS011;38650;44.536;18.664;2023-02-28T08:24:00;6.20;;;5.60;;
52764;SDS011;38650;44.536;18.664;2023-02-28T08:26:28;5.65;;;5.10;;
52764;SDS011;38650;44.536;18.664;2023-02-28T08:28:55;5.53;;;5.00;;
52764;SDS011;38650;44.536;18.664;2023-02-28T08:31:21;5.57;;;5.00;;
52764;SDS011;38650;44.536;18.664;2023-02-28T08:33:48;5.93;;;5.43;;
52764;SDS011;38650;44.536;18.664;2023-02-28T08:38:48;5.00;;;4.60;;
52764;SDS011;38650;44.536;18.664;2023-02-28T08:41:14;5.18;;;4.68;;
52764;SDS011;38650;44.536;18.664;2023-02-28T08:43:40;5.80;;;4.72;;
52764;SDS011;38650;44.536;18.664;2023-02-28T08:46:06;6.05;;;5.28;;
52764;SDS011;38650;44.536;18.664;2023-02-28T08:48:34;8.10;;;7.30;;
52764;SDS011;38650;44.536;18.664;2023-02-28T08:51:13;5.95;;;5.18;;
52764;SDS011;38650;44.536;18.664;2023-02-28T08:53:43;6.18;;;5.28;;
52764;SDS011;38650;44.536;18.664;2023-02-28T08:56:12;5.15;;;4.75;;
52764;SDS011;38650;44.536;18.664;2023-02-28T08:58:39;4.55;;;4.15;;
52764;SDS011;38650;44.536;18.664;2023-02-28T09:01:12;4.50;;;4.10;;
52764;SDS011;38650;44.536;18.664;2023-02-28T09:03:40;4.40;;;4.00;;
52764;SDS011;38650;44.536;18.664;2023-02-28T09:06:07;5.22;;;4.72;;
52764;SDS011;38650;44.536;18.664;2023-02-28T09:08:34;4.38;;;3.95;;
52764;SDS011;38650;44.536;18.664;2023-02-28T09:11:00;5.32;;;4.82;;
52764;SDS011;38650;44.536;18.664;2023-02-28T09:13:26;8.77;;;7.70;;
52764;SDS011;38650;44.536;18.664;2023-02-28T09:15:53;7.00;;;6.30;;
52764;SDS011;38650;44.536;18.664;2023-02-28T09:18:19;5.68;;;5.18;;
52764;SDS011;38650;44.536;18.664;2023-02-28T09:20:50;6.20;;;5.60;;
52764;SDS011;38650;44.536;18.664;2023-02-28T09:23:19;6.53;;;5.65;;
52764;SDS011;38650;44.536;18.664;2023-02-28T09:25:47;8.15;;;7.22;;
52764;SDS011;38650;44.536;18.664;2023-02-28T09:28:17;17.80;;;13.45;;
52764;SDS011;38650;44.536;18.664;2023-02-28T09:30:45;12.70;;;11.40;;
52764;SDS011;38650;44.536;18.664;2023-02-28T09:33:13;10.88;;;9.05;;
52764;SDS011;38650;44.536;18.664;2023-02-28T09:35:39;8.85;;;7.80;;
52764;SDS011;38650;44.536;18.664;2023-02-28T09:38:08;8.10;;;7.18;;
52764;SDS011;38650;44.536;18.664;2023-02-28T09:40:47;7.10;;;6.40;;
52764;SDS011;38650;44.536;18.664;2023-02-28T09:43:15;7.38;;;6.65;;
52764;SDS011;38650;44.536;18.664;2023-02-28T09:45:50;6.25;;;5.65;;
52764;SDS011;38650;44.536;18.664;2023-02-28T09:48:25;6.25;;;5.63;;
52764;SDS011;38650;44.536;18.664;2023-02-28T09:51:03;5.28;;;4.78;;
52764;SDS011;38650;44.536;18.664;2023-02-28T09:53:35;7.43;;;6.57;;
52764;SDS011;38650;44.536;18.664;2023-02-28T09:56:08;6.93;;;6.22;;
52764;SDS011;38650;44.536;18.664;2023-02-28T10:02:17;6.25;;;5.65;;
52764;SDS011;38650;44.536;18.664;2023-02-28T10:04:57;6.55;;;5.65;;
52764;SDS011;38650;44.536;18.664;2023-02-28T10:07:43;6.90;;;6.30;;
52764;SDS011;38650;44.536;18.664;2023-02-28T10:16:36;5.30;;;4.80;;
52764;SDS011;38650;44.536;18.664;2023-02-28T10:25:23;6.20;;;5.70;;
52764;SDS011;38650;44.536;18.664;2023-02-28T10:28:00;5.00;;;4.60;;
52764;SDS011;38650;44.536;18.664;2023-02-28T10:30:32;9.65;;;8.13;;
52764;SDS011;38650;44.536;18.664;2023-02-28T10:33:02;11.80;;;9.43;;
52764;SDS011;38650;44.536;18.664;2023-02-28T10:35:34;19.73;;;16.63;;
52764;SDS011;38650;44.536;18.664;2023-02-28T10:38:00;12.10;;;10.90;;
52764;SDS011;38650;44.536;18.664;2023-02-28T10:40:45;11.63;;;9.57;;
52764;SDS011;38650;44.536;18.664;2023-02-28T10:48:38;9.25;;;7.70;;
52764;SDS011;38650;44.536;18.664;2023-02-28T10:51:15;9.27;;;8.30;;
52764;SDS011;38650;44.536;18.664;2023-02-28T11:04:50;9.63;;;8.73;;
52764;SDS011;38650;44.536;18.664;2023-02-28T11:09:45;7.05;;;6.35;;
52764;SDS011;38650;44.536;18.664;2023-02-28T11:12:21;6.18;;;5.57;;
52764;SDS011;38650;44.536;18.664;2023-02-28T11:14:52;5.70;;;5.20;;
52764;SDS011;38650;44.536;18.664;2023-02-28T11:17:29;5.97;;;5.38;;
52764;SDS011;38650;44.536;18.664;2023-02-28T11:20:01;5.18;;;4.68;;
52764;SDS011;38650;44.536;18.664;2023-02-28T11:22:32;5.28;;;4.78;;
52764;SDS011;38650;44.536;18.664;2023-02-28T11:25:08;5.07;;;4.60;;
52764;SDS011;38650;44.536;18.664;2023-02-28T11:27:46;4.75;;;4.35;;
52764;SDS011;38650;44.536;18.664;2023-02-28T11:30:27;5.50;;;5.00;;
52764;SDS011;38650;44.536;18.664;2023-02-28T11:32:53;4.78;;;4.38;;
52764;SDS011;38650;44.536;18.664;2023-02-28T11:38:12;4.78;;;4.38;;
52764;SDS011;38650;44.536;18.664;2023-02-28T11:46:38;6.32;;;5.72;;
52764;SDS011;38650;44.536;18.664;2023-02-28T12:02:35;4.75;;;4.35;;
52764;SDS011;38650;44.536;18.664;2023-02-28T12:10:52;8.10;;;6.82;;
52764;SDS011;38650;44.536;18.664;2023-02-28T12:13:24;7.85;;;7.05;;
52764;SDS011;38650;44.536;18.664;2023-02-28T12:27:33;7.45;;;6.65;;
52764;SDS011;38650;44.536;18.664;2023-02-28T12:30:26;7.35;;;6.65;;
52764;SDS011;38650;44.536;18.664;2023-02-28T12:33:01;7.25;;;6.55;;
52764;SDS011;38650;44.536;18.664;2023-02-28T12:35:34;10.23;;;9.13;;
52764;SDS011;38650;44.536;18.664;2023-02-28T12:38:12;9.18;;;8.15;;
52764;SDS011;38650;44.536;18.664;2023-02-28T12:40:45;8.82;;;7.93;;
52764;SDS011;38650;44.536;18.664;2023-02-28T12:43:16;10.45;;;8.63;;
52764;SDS011;38650;44.536;18.664;2023-02-28T12:45:56;8.75;;;7.82;;
52764;SDS011;38650;44.536;18.664;2023-02-28T12:48:48;10.15;;;9.02;;
52764;SDS011;38650;44.536;18.664;2023-02-28T12:51:15;10.45;;;9.35;;
52764;SDS011;38650;44.536;18.664;2023-02-28T12:54:25;8.35;;;7.43;;
52764;SDS011;38650;44.536;18.664;2023-02-28T12:59:38;8.73;;;7.57;;
52764;SDS011;38650;44.536;18.664;2023-02-28T13:05:14;9.00;;;8.10;;
52764;SDS011;38650;44.536;18.664;2023-02-28T13:10:44;10.10;;;8.30;;
52764;SDS011;38650;44.536;18.664;2023-02-28T13:13:16;8.93;;;8.02;;
52764;SDS011;38650;44.536;18.664;2023-02-28T13:15:56;9.40;;;8.40;;
52764;SDS011;38650;44.536;18.664;2023-02-28T13:18:28;10.43;;;9.32;;
52764;SDS011;38650;44.536;18.664;2023-02-28T13:21:07;9.82;;;8.43;;
52764;SDS011;38650;44.536;18.664;2023-02-28T13:26:23;7.45;;;6.65;;
52764;SDS011;38650;44.536;18.664;2023-02-28T13:34:30;9.40;;;8.32;;
52764;SDS011;38650;44.536;18.664;2023-02-28T13:42:36;11.45;;;9.52;;
52764;SDS011;38650;44.536;18.664;2023-02-28T13:52:45;8.48;;;7.15;;
52764;SDS011;38650;44.536;18.664;2023-02-28T14:11:45;8.35;;;6.60;;
52764;SDS011;38650;44.536;18.664;2023-02-28T14:17:16;8.65;;;7.55;;
52764;SDS011;38650;44.536;18.664;2023-02-28T14:19:45;8.50;;;7.28;;
52764;SDS011;38650;44.536;18.664;2023-02-28T14:31:44;7.95;;;6.53;;
52764;SDS011;38650;44.536;18.664;2023-02-28T14:34:32;7.55;;;6.75;;
52764;SDS011;38650;44.536;18.664;2023-02-28T14:37:17;8.02;;;6.47;;
52764;SDS011;38650;44.536;18.664;2023-02-28T14:45:01;7.68;;;6.00;;
52764;SDS011;38650;44.536;18.664;2023-02-28T14:47:28;7.93;;;6.57;;
52764;SDS011;38650;44.536;18.664;2023-02-28T14:49:58;7.43;;;6.32;;
52764;SDS011;38650;44.536;18.664;2023-02-28T14:52:28;7.57;;;6.45;;
52764;SDS011;38650;44.536;18.664;2023-02-28T14:55:06;7.22;;;6.05;;
52764;SDS011;38650;44.536;18.664;2023-02-28T14:58:02;8.20;;;6.97;;
52764;SDS011;38650;44.536;18.664;2023-02-28T15:00:35;9.45;;;7.80;;
52764;SDS011;38650;44.536;18.664;2023-02-28T15:03:22;8.77;;;7.07;;
52764;SDS011;38650;44.536;18.664;2023-02-28T15:05:51;12.43;;;9.68;;
52764;SDS011;38650;44.536;18.664;2023-02-28T15:08:22;10.88;;;8.93;;
52764;SDS011;38650;44.536;18.664;2023-02-28T15:13:19;9.77;;;8.60;;
52764;SDS011;38650;44.536;18.664;2023-02-28T15:15:51;14.38;;;11.00;;
52764;SDS011;38650;44.536;18.664;2023-02-28T15:20:54;12.35;;;10.48;;
52764;SDS011;38650;44.536;18.664;2023-02-28T15:23:22;12.75;;;10.40;;
52764;SDS011;38650;44.536;18.664;2023-02-28T15:25:48;17.70;;;13.35;;
52764;SDS011;38650;44.536;18.664;2023-02-28T15:28:16;30.13;;;20.60;;
52764;SDS011;38650;44.536;18.664;2023-02-28T15:30:52;25.95;;;18.63;;
52764;SDS011;38650;44.536;18.664;2023-02-28T15:33:32;37.50;;;25.17;;
52764;SDS011;38650;44.536;18.664;2023-02-28T15:36:05;24.80;;;18.42;;
52764;SDS011;38650;44.536;18.664;2023-02-28T15:38:37;25.75;;;17.98;;
52764;SDS011;38650;44.536;18.664;2023-02-28T15:41:02;29.15;;;20.50;;
52764;SDS011;38650;44.536;18.664;2023-02-28T15:43:36;29.00;;;18.90;;
52764;SDS011;38650;44.536;18.664;2023-02-28T15:46:05;24.90;;;17.65;;
52764;SDS011;38650;44.536;18.664;2023-02-28T15:48:52;29.05;;;18.77;;
52764;SDS011;38650;44.536;18.664;2023-02-28T15:51:23;28.40;;;20.60;;
52764;SDS011;38650;44.536;18.664;2023-02-28T15:53:55;33.55;;;23.20;;
52764;SDS011;38650;44.536;18.664;2023-02-28T15:56:25;29.67;;;22.27;;
52764;SDS011;38650;44.536;18.664;2023-02-28T15:59:03;33.35;;;24.38;;
52764;SDS011;38650;44.536;18.664;2023-02-28T16:01:32;25.77;;;18.08;;
52764;SDS011;38650;44.536;18.664;2023-02-28T16:04:01;28.60;;;18.45;;
52764;SDS011;38650;44.536;18.664;2023-02-28T16:06:32;33.60;;;21.27;;
52764;SDS011;38650;44.536;18.664;2023-02-28T16:09:09;29.38;;;18.77;;
52764;SDS011;38650;44.536;18.664;2023-02-28T16:11:47;30.38;;;19.70;;
52764;SDS011;38650;44.536;18.664;2023-02-28T16:14:16;29.00;;;21.48;;
52764;SDS011;38650;44.536;18.664;2023-02-28T16:16:45;36.72;;;23.65;;
52764;SDS011;38650;44.536;18.664;2023-02-28T16:19:13;40.10;;;25.70;;
52764;SDS011;38650;44.536;18.664;2023-02-28T16:21:39;36.50;;;23.52;;
52764;SDS011;38650;44.536;18.664;2023-02-28T16:24:04;34.75;;;23.35;;
52764;SDS011;38650;44.536;18.664;2023-02-28T16:26:31;30.80;;;21.58;;
52764;SDS011;38650;44.536;18.664;2023-02-28T16:28:59;33.95;;;22.80;;
52764;SDS011;38650;44.536;18.664;2023-02-28T16:31:27;35.70;;;24.30;;
52764;SDS011;38650;44.536;18.664;2023-02-28T16:33:53;31.48;;;23.00;;
52764;SDS011;38650;44.536;18.664;2023-02-28T16:36:23;37.92;;;24.00;;
52764;SDS011;38650;44.536;18.664;2023-02-28T16:38:53;35.85;;;23.73;;
52764;SDS011;38650;44.536;18.664;2023-02-28T16:41:20;41.47;;;26.10;;
52764;SDS011;38650;44.536;18.664;2023-02-28T16:43:49;35.42;;;24.20;;
52764;SDS011;38650;44.536;18.664;2023-02-28T16:46:16;53.25;;;32.78;;
52764;SDS011;38650;44.536;18.664;2023-02-28T16:48:46;50.90;;;32.22;;
52764;SDS011;38650;44.536;18.664;2023-02-28T16:51:16;70.28;;;43.42;;
52764;SDS011;38650;44.536;18.664;2023-02-28T16:53:44;66.82;;;39.97;;
52764;SDS011;38650;44.536;18.664;2023-02-28T16:56:13;49.70;;;32.22;;
52764;SDS011;38650;44.536;18.664;2023-02-28T16:58:47;42.53;;;28.75;;
52764;SDS011;38650;44.536;18.664;2023-02-28T17:01:14;38.03;;;26.33;;
52764;SDS011;38650;44.536;18.664;2023-02-28T17:03:40;31.30;;;22.50;;
52764;SDS011;38650;44.536;18.664;2023-02-28T17:06:06;28.92;;;20.02;;
52764;SDS011;38650;44.536;18.664;2023-02-28T17:09:02;24.27;;;17.05;;
52764;SDS011;38650;44.536;18.664;2023-02-28T17:11:28;22.65;;;16.30;;
52764;SDS011;38650;44.536;18.664;2023-02-28T17:13:53;20.88;;;14.88;;
52764;SDS011;38650;44.536;18.664;2023-02-28T17:18:54;16.23;;;12.95;;
52764;SDS011;38650;44.536;18.664;2023-02-28T17:21:23;17.08;;;12.80;;
